Time;durP1;ratioP1;P1;durP2;ratioP2;P2;SDS_P1;SDS_P2;PMS_P1;PMS_P2;Temp;Humidity;BMP_temperature;BMP_pressure;BME280_temperature;BME280_humidity;BME280_pressure;Samples;Min_cycle;Max_cycle;Signal;HPM_P1;HPM_P2
2022/02/01 00:03:30;;;;;;;81.57;44.67;;;;;;;4.24;66.04;100564.13;5013659;28;20053;-66
2022/02/01 00:06:14;;;;;;;81.35;44.13;;;;;;;4.22;66.10;100571.13;5013664;28;20041;-66
2022/02/01 00:08:51;;;;;;;81.57;43.53;;;;;;;4.00;66.13;100564.06;5013927;28;20042;-66
2022/02/01 00:11:37;;;;;;;80.82;43.15;;;;;;;3.90;66.52;100571.28;5013532;28;20509;-66
2022/02/01 00:19:38;;;;;;;75.97;41.73;;;;;;;3.81;66.48;100557.72;5013888;28;20093;-67
2022/02/01 00:38:35;;;;;;;74.15;38.63;;;;;;;3.81;66.25;100542.16;5017373;28;20406;-67
2022/02/01 00:41:05;;;;;;;71.05;39.90;;;;;;;3.83;65.76;100543.81;5017620;28;20143;-66
2022/02/01 00:43:33;;;;;;;70.80;38.65;;;;;;;3.81;65.70;100540.44;5017255;28;20132;-66
2022/02/01 00:46:02;;;;;;;70.18;37.08;;;;;;;3.82;65.58;100538.66;5017194;28;20166;-67
2022/02/01 00:48:29;;;;;;;63.30;34.50;;;;;;;3.86;65.77;100566.22;5017157;28;20045;-67
2022/02/01 00:50:57;;;;;;;64.80;35.38;;;;;;;3.99;65.56;100567.53;5017444;28;20124;-67
2022/02/01 00:53:29;;;;;;;69.78;37.40;;;;;;;4.00;65.56;100574.44;5017301;28;20393;-67
2022/02/01 00:55:57;;;;;;;63.28;35.55;;;;;;;3.97;65.50;100574.50;5017237;28;20096;-66
2022/02/01 00:58:24;;;;;;;64.20;34.42;;;;;;;3.92;65.79;100569.50;5017245;28;20060;-67
2022/02/01 01:00:51;;;;;;;63.72;35.08;;;;;;;3.94;65.61;100566.84;5017162;28;20598;-66
2022/02/01 01:03:18;;;;;;;67.43;35.83;;;;;;;3.97;65.47;100579.72;5017192;28;20073;-66
2022/02/01 01:05:45;;;;;;;67.18;34.17;;;;;;;3.73;66.22;100571.81;5016805;28;20050;-66
2022/02/01 01:08:12;;;;;;;58.90;32.53;;;;;;;3.74;65.55;100572.66;5017141;28;20084;-66
2022/02/01 01:10:40;;;;;;;58.75;31.13;;;;;;;3.74;65.51;100577.84;5016696;28;20050;-67
2022/02/01 01:15:47;;;;;;;54.55;29.92;;;;;;;3.84;64.96;100568.03;5017188;28;20479;-67
2022/02/01 01:43:49;;;;;;;31.50;17.52;;;;;;;3.60;61.97;100553.16;5013658;28;20456;-64
2022/02/01 01:54:28;;;;;;;36.97;18.73;;;;;;;3.83;60.73;100581.91;5015212;28;20046;-63
2022/02/01 01:57:09;;;;;;;31.30;18.50;;;;;;;3.92;60.22;100586.78;5014962;28;20054;-63
2022/02/01 01:59:42;;;;;;;40.72;20.33;;;;;;;3.98;60.06;100590.97;5013895;28;20092;-64
2022/02/01 02:02:09;;;;;;;37.83;19.35;;;;;;;4.01;59.90;100609.88;5014983;28;20054;-65
2022/02/01 02:04:36;;;;;;;41.97;20.88;;;;;;;4.04;59.86;100590.78;5014919;28;20049;-64
2022/02/01 02:07:02;;;;;;;41.13;20.55;;;;;;;4.06;59.75;100589.81;5014936;28;20056;-64
2022/02/01 02:09:29;;;;;;;35.58;19.50;;;;;;;4.06;60.00;100604.53;5014833;28;20132;-64
2022/02/01 02:12:29;;;;;;;39.13;21.27;;;;;;;4.11;59.84;100591.41;5014644;28;20524;-64
2022/02/01 02:14:48;;;;;;;45.95;23.08;;;;;;;4.12;59.76;100580.97;5014542;28;20544;-64
2022/02/01 02:17:15;;;;;;;49.83;26.60;;;;;;;4.05;60.14;100580.31;5013681;28;20205;-63
2022/02/01 02:19:41;;;;;;;48.20;26.25;;;;;;;4.04;60.34;100589.00;5014594;28;20045;-64
2022/02/01 02:22:08;;;;;;;50.83;25.75;;;;;;;4.05;60.43;100597.63;5014553;28;20561;-64
2022/02/01 02:24:38;;;;;;;46.30;25.30;;;;;;;4.04;60.17;100599.41;5014653;28;20556;-64
2022/02/01 02:27:06;;;;;;;51.17;26.58;;;;;;;4.04;60.35;100594.19;5014628;28;20564;-64
2022/02/01 02:29:33;;;;;;;48.13;26.60;;;;;;;3.98;60.84;100599.59;5014158;28;20128;-64
2022/02/01 02:32:00;;;;;;;46.53;25.15;;;;;;;3.96;60.85;100584.97;5014321;28;20049;-64
2022/02/01 02:34:27;;;;;;;45.67;24.70;;;;;;;3.93;60.84;100578.94;5014367;28;20061;-64
2022/02/01 02:37:03;;;;;;;45.10;25.58;;;;;;;3.93;60.87;100570.31;5013424;28;20049;-64
2022/02/01 02:47:26;;;;;;;39.50;21.70;;;;;;;3.98;60.30;100560.63;5014008;28;20556;-64
2022/02/01 02:49:53;;;;;;;43.78;23.70;;;;;;;3.91;60.49;100577.31;5014041;28;20052;-64
2022/02/01 02:52:20;;;;;;;41.55;23.60;;;;;;;3.87;60.42;100586.97;5013157;28;20037;-63
2022/02/01 02:54:46;;;;;;;36.10;19.98;;;;;;;3.90;60.36;100573.88;5013020;28;20054;-63
2022/02/01 02:57:13;;;;;;;32.38;19.38;;;;;;;3.87;60.12;100576.56;5013837;28;20053;-64
2022/02/01 02:59:40;;;;;;;30.25;17.60;;;;;;;3.87;60.35;100568.78;5013745;28;20401;-63
2022/02/01 03:02:07;;;;;;;31.27;17.75;;;;;;;3.82;60.25;100570.69;5013851;28;20060;-63
2022/02/01 03:04:35;;;;;;;26.83;16.15;;;;;;;3.83;60.05;100572.34;5013674;28;20050;-64
2022/02/01 03:07:05;;;;;;;28.17;15.25;;;;;;;3.83;60.21;100579.31;5013876;28;20422;-64
2022/02/01 03:09:34;;;;;;;37.28;16.60;;;;;;;3.82;60.09;100593.19;5012634;28;20046;-64
2022/02/01 03:12:02;;;;;;;26.58;15.13;;;;;;;3.82;59.96;100607.03;5013588;28;20046;-64
2022/02/01 03:14:52;;;;;;;25.42;15.48;;;;;;;3.84;59.87;100615.59;5013806;28;20057;-64
2022/02/01 03:19:57;;;;;;;23.90;12.60;;;;;;;3.75;59.49;100601.16;5013483;28;20050;-64
2022/02/01 03:22:30;;;;;;;17.42;9.95;;;;;;;3.75;59.41;100614.13;5013574;28;20048;-64
2022/02/01 03:24:59;;;;;;;13.80;7.63;;;;;;;3.82;58.99;100616.53;5013233;28;20054;-64
2022/02/01 03:27:27;;;;;;;15.43;8.90;;;;;;;3.80;58.96;100623.53;5013211;28;20049;-64
2022/02/01 03:29:54;;;;;;;17.98;10.13;;;;;;;3.83;58.81;100619.06;5013374;28;20081;-64
2022/02/01 03:32:22;;;;;;;17.70;10.38;;;;;;;3.82;58.50;100625.19;5013438;28;20560;-64
2022/02/01 03:34:50;;;;;;;17.25;9.98;;;;;;;3.78;58.50;100630.50;5013396;28;20096;-64
2022/02/01 03:37:17;;;;;;;17.83;9.52;;;;;;;3.71;58.64;100620.31;5013011;28;20096;-64
2022/02/01 03:39:44;;;;;;;16.63;10.05;;;;;;;3.71;58.80;100633.28;5013142;28;20465;-64
2022/02/01 03:42:12;;;;;;;16.55;8.88;;;;;;;3.67;58.64;100630.81;5012337;28;20053;-64
2022/02/01 03:44:40;;;;;;;15.52;9.20;;;;;;;3.64;58.50;100626.56;5013186;28;20042;-64
2022/02/01 03:47:07;;;;;;;14.15;8.77;;;;;;;3.66;58.29;100629.13;5012080;28;20054;-64
2022/02/01 03:49:37;;;;;;;11.07;6.90;;;;;;;3.61;58.16;100629.28;5012975;28;20042;-64
2022/02/01 03:52:05;;;;;;;11.25;6.18;;;;;;;3.55;58.16;100635.47;5013028;28;20049;-64
2022/02/01 03:54:34;;;;;;;11.65;6.10;;;;;;;3.54;58.15;100625.16;5012919;28;20046;-64
2022/02/01 03:57:02;;;;;;;10.40;6.05;;;;;;;3.48;58.05;100628.78;5012972;28;20060;-64
2022/02/01 03:59:29;;;;;;;9.73;5.55;;;;;;;3.45;58.02;100617.63;5011932;28;20440;-64
2022/02/01 04:01:59;;;;;;;11.95;4.95;;;;;;;3.38;58.07;100617.81;5012860;28;20042;-64
2022/02/01 04:04:28;;;;;;;8.25;4.78;;;;;;;3.36;57.90;100627.38;5008075;28;20124;-64
2022/02/01 04:06:57;;;;;;;7.07;4.25;;;;;;;3.33;57.87;100634.41;5009403;28;20478;-64
2022/02/01 04:09:24;;;;;;;9.55;4.25;;;;;;;3.31;57.87;100646.56;5009532;28;20053;-64
2022/02/01 04:11:57;;;;;;;8.27;3.88;;;;;;;3.35;57.85;100653.34;5009707;28;20505;-64
2022/02/01 04:14:27;;;;;;;6.53;3.72;;;;;;;3.35;57.68;100649.03;5008503;28;20046;-64
2022/02/01 04:16:55;;;;;;;5.72;4.00;;;;;;;3.35;57.70;100635.19;5009352;28;20486;-65
2022/02/01 04:19:21;;;;;;;10.57;5.10;;;;;;;3.36;57.76;100650.72;5009247;28;20482;-63
2022/02/01 04:22:00;;;;;;;14.77;8.77;;;;;;;3.38;57.56;100658.47;5009864;28;20061;-64
2022/02/01 04:24:28;;;;;;;16.27;9.38;;;;;;;3.42;57.52;100681.66;5009204;28;20141;-64
2022/02/01 04:26:55;;;;;;;27.13;14.05;;;;;;;3.38;57.42;100690.44;5009108;28;20046;-64
2022/02/01 04:29:22;;;;;;;37.58;19.38;;;;;;;3.40;57.73;100682.59;5008994;28;20054;-63
2022/02/01 04:31:48;;;;;;;34.00;18.70;;;;;;;3.41;57.77;100682.56;5008519;28;20046;-64
2022/02/01 04:34:15;;;;;;;30.80;17.15;;;;;;;3.38;57.79;100685.25;5009474;28;20042;-64
2022/02/01 04:36:47;;;;;;;30.38;17.58;;;;;;;3.32;58.04;100693.19;5009186;28;20509;-63
2022/02/01 04:39:14;;;;;;;32.42;17.63;;;;;;;3.32;58.05;100700.13;5009359;28;20568;-63
2022/02/01 04:41:40;;;;;;;33.15;18.13;;;;;;;3.31;57.94;100703.63;5008961;28;20054;-64
2022/02/01 04:44:07;;;;;;;34.70;19.67;;;;;;;3.27;58.19;100700.25;5009127;28;20046;-64
2022/02/01 04:46:34;;;;;;;40.08;20.42;;;;;;;3.21;58.33;100722.03;5009207;28;20050;-64
2022/02/01 04:49:08;;;;;;;39.28;21.15;;;;;;;3.21;58.49;100722.03;5008005;28;20517;-64
2022/02/01 04:51:35;;;;;;;43.63;21.52;;;;;;;3.16;58.70;100726.50;5008982;28;20057;-64
2022/02/01 04:54:02;;;;;;;42.63;21.75;;;;;;;3.12;58.83;100724.00;5009214;28;20123;-64
2022/02/01 04:56:28;;;;;;;37.90;19.40;;;;;;;3.03;58.74;100740.63;5008915;28;20054;-64
2022/02/01 04:58:55;;;;;;;35.72;19.15;;;;;;;2.95;58.97;100743.44;5009052;28;20053;-64
2022/02/01 05:01:31;;;;;;;35.00;18.25;;;;;;;2.94;58.73;100739.97;5008836;28;20513;-63
2022/02/01 05:03:58;;;;;;;36.15;18.15;;;;;;;2.93;58.76;100746.06;5008196;28;20058;-63
2022/02/01 05:06:28;;;;;;;35.25;19.00;;;;;;;2.88;58.79;100734.09;5008869;28;20052;-64
2022/02/01 05:08:55;;;;;;;32.97;17.02;;;;;;;2.85;58.86;100736.78;5008855;28;20506;-64
2022/02/01 05:11:22;;;;;;;33.42;18.10;;;;;;;2.88;58.72;100747.91;5008811;28;20052;-63
2022/02/01 05:14:13;;;;;;;25.38;13.95;;;;;;;2.88;58.67;100739.28;5009220;28;20045;-66
2022/02/01 05:16:58;;;;;;;30.30;15.45;;;;;;;2.87;58.47;100743.63;5008502;28;20081;-63
2022/02/01 05:22:02;;;;;;;27.00;14.30;;;;;;;2.71;58.64;100747.47;5011612;28;20046;-64
2022/02/01 05:24:29;;;;;;;28.10;13.63;;;;;;;2.68;58.30;100739.75;5012342;28;20046;-64
2022/02/01 05:26:57;;;;;;;22.02;11.38;;;;;;;2.64;58.14;100739.00;5012531;28;20053;-64
2022/02/01 05:29:23;;;;;;;13.35;7.82;;;;;;;2.61;58.25;100749.44;5012075;28;20568;-65
2022/02/01 05:31:52;;;;;;;17.75;8.88;;;;;;;2.63;58.21;100763.22;5012310;28;20050;-64
2022/02/01 05:34:19;;;;;;;13.10;7.80;;;;;;;2.62;57.89;100769.28;5012503;28;20083;-64
2022/02/01 05:36:46;;;;;;;12.00;7.55;;;;;;;2.59;57.70;100767.59;5012227;28;20045;-63
2022/02/01 05:39:16;;;;;;;11.77;6.57;;;;;;;2.59;57.58;100772.78;5011041;28;20053;-63
2022/02/01 05:41:44;;;;;;;9.45;4.70;;;;;;;2.56;57.34;100784.94;5011169;28;20050;-64
2022/02/01 05:44:11;;;;;;;7.28;3.40;;;;;;;2.40;57.38;100795.66;5011947;28;20486;-63
2022/02/01 05:46:39;;;;;;;6.90;3.30;;;;;;;2.41;57.25;100809.44;5011887;28;20473;-63
2022/02/01 05:49:06;;;;;;;5.20;2.65;;;;;;;2.48;56.89;100811.03;5011930;28;20049;-64
2022/02/01 05:51:34;;;;;;;4.35;1.80;;;;;;;2.51;56.33;100817.88;5012088;28;20401;-66
2022/02/01 05:54:01;;;;;;;2.72;1.45;;;;;;;2.62;56.07;100828.84;5011743;28;20112;-63
2022/02/01 05:56:28;;;;;;;2.10;1.10;;;;;;;2.69;55.53;100832.16;5010790;28;20061;-65
2022/02/01 05:58:55;;;;;;;2.10;1.30;;;;;;;2.71;55.36;100840.75;5011735;28;20050;-65
2022/02/01 06:01:21;;;;;;;2.67;1.10;;;;;;;2.70;55.34;100834.69;5011645;28;20092;-65
2022/02/01 06:03:48;;;;;;;2.33;1.20;;;;;;;2.74;55.49;100840.66;5012119;28;20054;-66
2022/02/01 06:06:15;;;;;;;1.52;1.10;;;;;;;2.82;55.36;100841.38;5011771;28;20046;-65
2022/02/01 06:08:42;;;;;;;1.55;0.90;;;;;;;2.91;55.29;100848.91;5011448;28;20141;-69
2022/02/01 06:11:08;;;;;;;3.88;1.25;;;;;;;2.93;55.75;100833.31;5011604;28;20050;-64
2022/02/01 06:13:38;;;;;;;1.55;0.90;;;;;;;2.98;55.58;100841.84;5010674;28;20129;-70
2022/02/01 06:16:05;;;;;;;1.05;0.60;;;;;;;3.03;55.63;100850.34;5011475;28;20078;-70
2022/02/01 06:18:32;;;;;;;1.52;0.80;;;;;;;3.10;55.48;100849.34;5011275;28;20050;-65
2022/02/01 06:21:00;;;;;;;1.08;0.55;;;;;;;3.21;55.41;100843.03;5003185;28;20489;-65
2022/02/01 06:23:27;;;;;;;1.75;0.70;;;;;;;3.27;55.35;100845.47;4994317;28;20046;-64
2022/02/01 06:25:56;;;;;;;2.08;0.60;;;;;;;3.29;55.26;100843.72;4991754;28;20046;-64
2022/02/01 06:28:28;;;;;;;3.10;0.75;;;;;;;3.32;55.18;100853.16;4991357;28;20050;-66
2022/02/01 06:30:55;;;;;;;1.65;0.70;;;;;;;3.34;55.16;100865.19;5005942;28;20487;-66
2022/02/01 06:33:23;;;;;;;2.50;1.17;;;;;;;3.37;55.31;100865.13;5010693;28;20057;-66
2022/02/01 06:35:49;;;;;;;1.52;0.85;;;;;;;3.41;55.15;100856.34;4999891;28;20454;-65
2022/02/01 06:38:16;;;;;;;1.80;1.10;;;;;;;3.43;55.14;100869.31;5001295;28;20050;-63
2022/02/01 06:40:45;;;;;;;1.92;0.80;;;;;;;3.43;55.14;100882.28;5001027;28;20050;-66
2022/02/01 06:43:13;;;;;;;4.32;1.38;;;;;;;3.44;55.01;100868.41;4999457;28;20046;-62
2022/02/01 06:45:40;;;;;;;2.40;1.55;;;;;;;3.48;55.15;100870.03;5007714;28;20050;-61
2022/02/01 06:48:07;;;;;;;4.70;1.45;;;;;;;3.52;55.15;100878.59;5009510;28;20049;-62
2022/02/01 06:50:34;;;;;;;3.75;1.65;;;;;;;3.59;55.01;100877.53;5010569;28;20052;-62
2022/02/01 06:53:02;;;;;;;11.98;2.35;;;;;;;3.66;54.53;100880.84;5010738;28;20050;-66
2022/02/01 06:58:11;;;;;;;5.18;1.45;;;;;;;3.70;54.32;100880.72;5010522;28;20490;-62
2022/02/01 07:00:37;;;;;;;3.63;1.40;;;;;;;3.78;54.55;100900.44;5010820;28;20050;-62
2022/02/01 07:03:04;;;;;;;5.80;1.42;;;;;;;3.74;54.33;100897.91;5009431;28;20429;-62
2022/02/01 07:05:31;;;;;;;6.88;2.72;;;;;;;3.82;54.29;100897.72;5010228;28;20100;-61
2022/02/01 07:07:58;;;;;;;3.50;1.20;;;;;;;3.91;54.21;100907.88;5009573;28;20501;-62
2022/02/01 07:10:25;;;;;;;4.65;1.23;;;;;;;3.93;54.19;100913.84;5010226;28;20171;-61
2022/02/01 07:12:51;;;;;;;7.18;1.70;;;;;;;4.00;54.21;100905.91;5010103;28;20042;-61
2022/02/01 07:15:19;;;;;;;6.35;2.30;;;;;;;4.05;53.90;100911.81;4999528;28;20042;-62
2022/02/01 07:17:51;;;;;;;13.10;4.82;;;;;;;4.06;54.31;100922.19;5000777;28;20085;-62
2022/02/01 07:20:18;;;;;;;7.50;2.80;;;;;;;3.98;54.52;100918.94;5002544;28;20049;-61
2022/02/01 07:22:47;;;;;;;8.13;3.20;;;;;;;4.03;54.40;100916.22;4999161;28;20046;-62
2022/02/01 07:25:31;;;;;;;25.20;8.10;;;;;;;4.09;54.53;100924.69;4998774;28;20053;-61
2022/02/01 07:28:04;;;;;;;21.20;6.70;;;;;;;4.12;54.75;100941.09;5000454;28;20062;-64
2022/02/01 07:30:31;;;;;;;22.65;8.55;;;;;;;4.14;54.83;100942.75;5000099;28;20050;-62
2022/02/01 07:33:00;;;;;;;15.00;6.05;;;;;;;4.36;54.37;100942.19;5002259;28;20080;-66
2022/02/01 07:35:30;;;;;;;14.90;4.82;;;;;;;4.45;54.05;100939.31;5002308;28;20053;-63
2022/02/01 07:37:59;;;;;;;11.48;4.47;;;;;;;4.64;53.92;100936.22;5000406;28;20054;-66
2022/02/01 07:40:26;;;;;;;13.60;4.63;;;;;;;4.87;53.42;100948.53;4998116;28;20046;-62
2022/02/01 07:42:54;;;;;;;10.93;5.22;;;;;;;5.19;53.17;100950.16;4992727;28;20060;-63
2022/02/01 07:45:25;;;;;;;8.80;4.20;;;;;;;5.45;52.49;100930.28;5007345;28;20453;-63
2022/02/01 07:47:57;;;;;;;16.92;4.65;;;;;;;5.54;52.36;100929.13;5007014;28;20406;-62
2022/02/01 07:50:25;;;;;;;17.20;5.03;;;;;;;5.70;52.14;100929.44;5008276;28;20438;-62
2022/02/01 07:52:52;;;;;;;9.05;3.33;;;;;;;5.82;51.99;100930.81;5009407;28;20104;-66
2022/02/01 07:55:19;;;;;;;6.00;2.30;;;;;;;5.70;52.20;100943.34;5008325;28;20042;-63
2022/02/01 07:57:46;;;;;;;6.53;3.08;;;;;;;5.76;52.25;100939.66;5008802;28;20058;-63
2022/02/01 08:00:14;;;;;;;5.93;2.72;;;;;;;5.88;52.46;100938.41;4999172;28;20119;-61
2022/02/01 08:02:46;;;;;;;6.45;2.08;;;;;;;6.31;51.66;100949.13;4999277;28;20490;-64
2022/02/01 08:05:17;;;;;;;5.18;2.20;;;;;;;6.66;51.00;100958.28;4999276;28;20050;-64
2022/02/01 08:07:43;;;;;;;6.00;2.30;;;;;;;6.94;50.75;100959.00;4998178;28;20074;-62
2022/02/01 08:10:13;;;;;;;7.60;2.50;;;;;;;7.15;50.40;100947.75;4997223;28;20050;-63
2022/02/01 08:21:04;;;;;;;11.75;4.93;;;;;;;8.20;48.88;100941.75;4999607;28;20042;-62
2022/02/01 08:23:31;;;;;;;;;;;;;;;8.40;48.61;100931.25;4997590;28;20042;-63
2022/02/01 08:25:58;;;;;;;;;;;;;;;8.45;48.60;100933.66;4998351;28;19980;-68
2022/02/01 08:28:25;;;;;;;5.43;2.63;;;;;;;8.61;48.24;100939.09;4997291;28;19922;-63
2022/02/01 08:30:57;;;;;;;9.35;2.58;;;;;;;8.70;47.80;100951.75;4990069;28;20490;-63
2022/02/01 08:33:25;;;;;;;9.85;2.58;;;;;;;8.71;47.87;100950.84;5004910;28;20053;-63
2022/02/01 08:35:52;;;;;;;6.70;2.17;;;;;;;8.73;47.74;100953.38;5008953;28;20050;-63
2022/02/01 08:38:19;;;;;;;5.07;2.00;;;;;;;8.77;47.35;100954.94;5008303;28;20050;-64
2022/02/01 08:40:49;;;;;;;5.28;2.05;;;;;;;8.88;47.11;100951.84;5007923;28;20086;-64
2022/02/01 08:43:17;;;;;;;5.78;2.05;;;;;;;9.08;46.81;100954.38;5008659;28;20046;-65
2022/02/01 08:45:44;;;;;;;3.78;2.00;;;;;;;9.25;46.46;100955.34;5008952;28;20054;-63
2022/02/01 08:48:12;;;;;;;6.00;1.83;;;;;;;9.41;46.09;100955.47;5008560;28;20100;-67
2022/02/01 08:50:39;;;;;;;7.13;2.00;;;;;;;9.39;46.02;100963.38;5007910;28;20498;-64
2022/02/01 08:53:23;;;;;;;4.55;1.70;;;;;;;9.67;45.50;100967.25;5003060;28;20046;-64
2022/02/01 08:58:24;;;;;;;3.85;1.80;;;;;;;10.04;44.69;100982.94;5001357;28;20081;-66
2022/02/01 09:00:52;;;;;;;5.90;2.47;;;;;;;10.12;44.71;100986.03;5002335;28;20050;-64
2022/02/01 09:03:20;;;;;;;10.15;3.78;;;;;;;10.13;44.38;100983.31;5011370;28;20156;-63
2022/02/01 09:05:52;;;;;;;2.65;1.50;;;;;;;10.24;44.11;100981.94;5012482;28;20046;-63
2022/02/01 09:08:22;;;;;;;3.53;1.42;;;;;;;10.20;43.84;100975.97;5012028;28;20084;-64
2022/02/01 09:10:50;;;;;;;6.05;1.48;;;;;;;10.40;43.17;100976.78;5011346;28;20053;-64
2022/02/01 09:13:17;;;;;;;4.13;1.30;;;;;;;10.32;43.03;100961.38;5010486;28;20045;-63
2022/02/01 09:15:44;;;;;;;7.13;1.20;;;;;;;10.55;42.27;100947.09;5011936;28;20138;-65
2022/02/01 09:18:10;;;;;;;3.58;1.23;;;;;;;10.79;41.66;100949.31;5011970;28;20104;-63
2022/02/01 09:20:37;;;;;;;4.32;1.30;;;;;;;10.78;41.62;100966.03;5012025;28;20489;-63
2022/02/01 09:23:04;;;;;;;3.83;1.20;;;;;;;11.08;40.80;100986.28;5012303;28;20057;-63
2022/02/01 09:25:31;;;;;;;4.60;1.00;;;;;;;11.23;40.34;100995.09;5011551;28;20046;-67
2022/02/01 09:27:59;;;;;;;4.05;1.27;;;;;;;11.33;40.00;101011.19;5011756;28;20104;-63
2022/02/01 09:30:27;;;;;;;2.05;1.13;;;;;;;11.41;39.73;101016.84;5010208;28;20046;-65
2022/02/01 09:32:54;;;;;;;1.88;1.30;;;;;;;11.69;38.99;101023.19;5012118;28;20062;-64
2022/02/01 09:35:21;;;;;;;1.80;1.00;;;;;;;11.93;38.55;101013.91;5011420;28;20081;-64
2022/02/01 09:37:48;;;;;;;4.97;2.10;;;;;;;12.18;38.10;101036.16;5011570;28;20135;-64
2022/02/01 09:40:35;;;;;;;2.92;1.23;;;;;;;12.34;37.86;101027.34;5011134;28;20104;-64
2022/02/01 09:43:02;;;;;;;5.50;1.30;;;;;;;12.23;37.72;101025.38;5011727;28;20042;-64
2022/02/01 09:45:33;;;;;;;1.98;1.08;;;;;;;12.36;37.52;101028.97;5010988;28;20046;-64
2022/02/01 09:48:05;;;;;;;3.72;1.10;;;;;;;12.57;37.18;101032.09;5007581;28;20077;-63
2022/02/01 09:50:32;;;;;;;5.00;2.58;;;;;;;12.73;36.64;101031.16;5010032;28;20041;-63
2022/02/01 09:52:59;;;;;;;5.72;2.85;;;;;;;12.94;36.38;101028.13;5011197;28;20502;-64
2022/02/01 09:55:27;;;;;;;6.63;2.83;;;;;;;13.16;36.18;101030.28;5010531;28;20049;-64
2022/02/01 09:57:55;;;;;;;5.28;2.63;;;;;;;13.31;35.94;101041.66;5011319;28;20054;-64
2022/02/01 10:00:23;;;;;;;5.45;2.33;;;;;;;13.48;35.82;101044.06;5011387;28;20140;-64
2022/02/01 10:03:04;;;;;;;9.05;4.85;;;;;;;13.67;35.36;101051.66;5010835;28;20049;-65
2022/02/01 10:05:32;;;;;;;4.68;2.25;;;;;;;13.90;35.33;101041.38;5010660;28;20050;-64
2022/02/01 10:07:59;;;;;;;4.32;1.17;;;;;;;14.03;35.48;101038.81;5009632;28;20145;-63
2022/02/01 10:10:31;;;;;;;2.50;1.05;;;;;;;14.18;34.97;101055.38;4998438;28;20045;-65
2022/02/01 10:13:13;;;;;;;4.78;1.33;;;;;;;14.35;34.89;101064.81;5010652;28;20050;-65
2022/02/01 10:16:03;;;;;;;3.40;0.90;;;;;;;14.44;34.63;101087.97;5003726;28;20092;-63
2022/02/01 10:18:35;;;;;;;5.70;1.20;;;;;;;14.62;34.39;101088.50;5002771;28;20085;-62
2022/02/01 10:21:06;;;;;;;4.25;2.08;;;;;;;14.77;34.20;101091.94;5010507;28;20041;-63
2022/02/01 10:23:37;;;;;;;7.97;2.80;;;;;;;14.93;34.10;101078.50;5008231;28;20413;-67
2022/02/01 10:26:04;;;;;;;5.93;2.58;;;;;;;15.04;34.23;101055.75;5008565;28;20042;-66
2022/02/01 10:28:38;;;;;;;7.45;3.55;;;;;;;15.14;34.07;101057.63;5003035;28;20046;-62
2022/02/01 10:31:23;;;;;;;6.88;4.40;;;;;;;15.27;33.85;101046.19;4991386;28;20058;-62
2022/02/01 10:36:18;;;;;;;4.97;1.95;;;;;;;15.61;34.12;101035.81;5010578;28;20056;-65
2022/02/01 10:38:45;;;;;;;7.88;1.55;;;;;;;15.63;34.89;101042.69;5009638;28;20100;-64
2022/02/01 10:41:14;;;;;;;6.72;2.70;;;;;;;15.82;35.45;101034.25;5010528;28;20046;-65
2022/02/01 10:43:42;;;;;;;6.45;1.60;;;;;;;15.90;36.03;101036.34;5009381;28;20144;-64
2022/02/01 10:46:16;;;;;;;3.40;1.02;;;;;;;15.92;35.60;101030.91;5010159;28;20551;-64
2022/02/01 10:48:53;;;;;;;5.85;1.17;;;;;;;15.95;35.43;101031.53;5009679;28;20104;-61
2022/02/01 10:51:23;;;;;;;3.92;1.20;;;;;;;16.08;35.40;101038.56;5010348;28;20090;-64
2022/02/01 10:53:51;;;;;;;5.90;1.40;;;;;;;16.12;35.79;101038.19;5009647;28;20041;-62
2022/02/01 10:56:21;;;;;;;4.55;1.25;;;;;;;16.26;35.52;101026.56;5010081;28;20482;-61
2022/02/01 10:58:50;;;;;;;4.00;1.40;;;;;;;16.33;35.51;101006.59;5010027;28;20054;-61
2022/02/01 11:01:20;;;;;;;3.10;1.25;;;;;;;16.29;35.23;100999.88;5009982;28;20046;-61
2022/02/01 11:03:49;;;;;;;4.38;1.65;;;;;;;16.46;35.33;100984.47;5009058;28;20063;-61
2022/02/01 11:06:16;;;;;;;3.53;1.30;;;;;;;16.48;35.10;100985.19;5009431;28;20041;-61
2022/02/01 11:08:46;;;;;;;5.03;1.23;;;;;;;16.42;35.40;100994.47;5009430;28;20061;-66
2022/02/01 11:11:21;;;;;;;3.17;1.60;;;;;;;16.50;35.38;100991.22;4993238;28;20054;-62
2022/02/01 11:13:49;;;;;;;4.95;1.30;;;;;;;16.43;35.63;100979.41;5002039;28;20060;-61
2022/02/01 11:16:19;;;;;;;2.70;1.17;;;;;;;16.34;35.57;100973.03;4995514;28;20050;-61
2022/02/01 11:19:07;;;;;;;4.35;1.45;;;;;;;16.47;35.33;100965.81;5009343;28;20486;-61
2022/02/01 11:21:54;;;;;;;20.83;9.68;;;;;;;16.55;35.48;100975.81;5006672;28;20045;-61
2022/02/01 11:24:36;;;;;;;12.75;4.88;;;;;;;16.50;35.46;100972.66;5004900;28;20085;-61
2022/02/01 11:27:19;;;;;;;6.18;2.13;;;;;;;16.51;35.20;100963.75;4990409;28;20054;-67
2022/02/01 11:32:19;;;;;;;6.72;1.90;;;;;;;16.62;34.48;100960.25;5009465;28;20050;-67
2022/02/01 11:35:11;;;;;;;7.95;3.88;;;;;;;16.55;34.28;100965.19;5008043;28;20880;-67
2022/02/01 11:38:05;;;;;;;4.05;2.00;;;;;;;16.65;34.34;100965.34;5009549;28;20050;-65
2022/02/01 11:40:35;;;;;;;12.00;8.40;;;;;;;16.56;33.52;100958.94;5008069;28;20413;-64
2022/02/01 11:43:25;;;;;;;2.97;1.88;;;;;;;16.51;31.98;100954.97;5008864;28;20050;-64
2022/02/01 11:46:00;;;;;;;6.15;5.25;;;;;;;16.56;30.42;100958.94;5009767;28;20041;-64
2022/02/01 11:48:31;;;;;;;11.10;7.28;;;;;;;16.64;29.70;100958.34;5009896;28;20045;-68
2022/02/01 11:51:00;;;;;;;5.57;4.93;;;;;;;16.58;29.06;100954.38;5009669;28;20054;-64
2022/02/01 11:53:37;;;;;;;12.05;10.80;;;;;;;16.67;27.96;100936.06;5007832;28;20060;-65
2022/02/01 11:56:05;;;;;;;12.82;11.52;;;;;;;16.64;27.95;100940.63;5007905;28;20049;-68
2022/02/01 11:58:36;;;;;;;12.60;9.60;;;;;;;16.60;27.84;100930.41;5009224;28;20050;-68
2022/02/01 12:01:07;;;;;;;6.50;4.53;;;;;;;16.73;27.41;100930.28;5009112;28;20490;-63
2022/02/01 12:03:38;;;;;;;4.50;4.10;;;;;;;16.76;26.75;100925.56;5008741;28;20081;-63
2022/02/01 12:06:10;;;;;;;9.38;4.47;;;;;;;16.77;27.13;100915.81;5009217;28;20046;-65
2022/02/01 12:08:42;;;;;;;15.52;9.90;;;;;;;16.77;27.84;100913.16;5009002;28;20410;-63
2022/02/01 12:11:11;;;;;;;5.22;3.53;;;;;;;16.87;27.01;100908.78;5012033;28;20156;-65
2022/02/01 12:13:38;;;;;;;8.00;4.10;;;;;;;16.96;26.90;100905.44;5015580;28;20049;-66
2022/02/01 12:16:12;;;;;;;13.48;9.05;;;;;;;17.06;27.45;100912.66;5018283;28;20180;-63
2022/02/01 12:18:53;;;;;;;19.85;12.70;;;;;;;17.04;26.72;100917.22;5015357;28;20038;-63
2022/02/01 12:21:27;;;;;;;10.23;5.55;;;;;;;17.08;26.46;100916.03;5027259;28;20053;-64
2022/02/01 12:23:58;;;;;;;13.27;7.30;;;;;;;17.13;25.86;100906.72;5016404;28;20038;-64
2022/02/01 12:26:40;;;;;;;13.25;6.93;;;;;;;17.10;26.01;100909.63;5029910;28;20085;-64
2022/02/01 12:29:12;;;;;;;9.57;5.85;;;;;;;17.13;25.50;100922.63;5034926;28;20057;-63
2022/02/01 12:31:41;;;;;;;7.22;4.90;;;;;;;17.27;25.03;100918.00;5034958;28;20049;-64
2022/02/01 12:34:13;;;;;;;16.20;11.07;;;;;;;17.41;24.72;100919.53;5034650;28;20387;-64
2022/02/01 12:36:43;;;;;;;16.08;10.98;;;;;;;17.52;24.56;100918.63;5034679;28;20053;-64
2022/02/01 12:39:28;;;;;;;6.13;5.13;;;;;;;17.59;23.81;100927.75;5035537;28;20111;-62
2022/02/01 12:42:07;;;;;;;8.38;5.00;;;;;;;17.63;23.67;100914.06;5021945;28;20073;-62
2022/02/01 12:47:18;;;;;;;1.13;0.82;;;;;;;17.81;22.45;100928.59;5015406;28;20056;-62
2022/02/01 12:50:05;;;;;;;1.63;1.00;;;;;;;17.79;21.56;100928.75;5015462;28;20058;-63
2022/02/01 12:52:34;;;;;;;0.65;0.50;;;;;;;17.86;21.77;100923.75;5013568;28;20109;-61
2022/02/01 12:55:06;;;;;;;2.05;1.17;;;;;;;17.99;21.50;100918.25;5004716;28;20129;-61
2022/02/01 12:57:46;;;;;;;3.30;0.93;;;;;;;17.97;20.89;100918.41;5011334;28;20494;-62
2022/02/01 13:00:19;;;;;;;2.58;1.05;;;;;;;18.01;21.11;100909.19;5014556;28;20057;-63
2022/02/01 13:02:46;;;;;;;2.65;0.50;;;;;;;17.97;20.57;100913.09;5003923;28;20077;-62
2022/02/01 13:05:15;;;;;;;3.72;0.55;;;;;;;18.09;20.64;100908.53;5005561;28;20076;-63
2022/02/01 13:16:35;;;;;;;1.20;0.60;;;;;;;18.30;19.53;100904.97;4995447;28;20054;-63
2022/02/01 13:21:39;;;;;;;1.65;0.88;;;;;;;18.24;18.80;100893.09;4994703;28;20097;-62
2022/02/01 13:24:07;;;;;;;4.00;2.10;;;;;;;18.23;18.86;100889.59;4994759;28;20495;-63